createdAt,value
2023-01-30T00:00:55.915Z,21.03
2023-01-30T00:05:01.369Z,21.07
2023-01-30T00:09:06.928Z,19.50
2023-01-30T00:13:11.280Z,19.23
2023-01-30T00:17:40.527Z,20.17
2023-01-30T00:21:44.529Z,19.30
2023-01-30T00:25:51.234Z,20.20
2023-01-30T00:30:02.830Z,22.77
2023-01-30T00:34:10.580Z,23.43
2023-01-30T00:38:15.273Z,20.60
2023-01-30T00:42:38.048Z,22.70
2023-01-30T00:46:59.462Z,20.83
2023-01-30T00:51:03.640Z,21.87
2023-01-30T00:55:32.958Z,20.23
2023-01-30T00:59:38.068Z,21.13
2023-01-30T01:03:54.011Z,20.40
2023-01-30T01:07:57.839Z,19.07
2023-01-30T01:12:01.826Z,18.77
2023-01-30T01:16:12.191Z,21.27
2023-01-30T01:20:16.664Z,19.43
2023-01-30T01:24:25.823Z,21.00
2023-01-30T01:28:29.430Z,19.53
2023-01-30T01:32:35.151Z,22.50
2023-01-30T01:36:54.912Z,21.67
2023-01-30T01:41:07.749Z,24.30
2023-01-30T01:45:31.306Z,24.57
2023-01-30T01:49:38.851Z,21.60
2023-01-30T01:54:01.244Z,23.23
2023-01-30T01:58:09.167Z,22.13
2023-01-30T02:02:15.762Z,25.93
2023-01-30T02:06:45.257Z,24.63
2023-01-30T02:10:54.517Z,22.60
2023-01-30T02:15:00.310Z,25.67
2023-01-30T02:19:21.449Z,25.00
2023-01-30T02:24:08.158Z,21.57
2023-01-30T02:28:59.651Z,23.27
2023-01-30T02:33:17.415Z,20.97
2023-01-30T02:37:38.514Z,20.60
2023-01-30T02:41:50.222Z,22.03
2023-01-30T02:45:58.386Z,22.63
2023-01-30T02:50:12.052Z,23.20
2023-01-30T02:54:16.527Z,22.00
2023-01-30T02:58:25.923Z,21.83
2023-01-30T03:02:52.213Z,25.43
2023-01-30T03:07:15.538Z,21.73
2023-01-30T03:11:27.612Z,23.20
2023-01-30T03:15:35.606Z,25.00
2023-01-30T03:19:39.208Z,21.50
2023-01-30T03:23:46.279Z,21.43
2023-01-30T03:27:51.565Z,23.53
2023-01-30T03:31:55.373Z,23.90
2023-01-30T03:36:25.796Z,25.70
2023-01-30T03:40:32.263Z,20.57
2023-01-30T03:44:40.360Z,24.00
2023-01-30T03:48:44.273Z,24.53
2023-01-30T03:52:49.281Z,20.30
2023-01-30T03:57:08.069Z,23.10
2023-01-30T04:01:11.437Z,24.70
2023-01-30T04:05:15.205Z,21.90
2023-01-30T04:09:24.852Z,24.27
2023-01-30T04:13:30.816Z,21.57
2023-01-30T04:17:34.230Z,20.77
2023-01-30T04:22:22.147Z,19.30
2023-01-30T04:26:25.591Z,23.80
2023-01-30T04:30:31.439Z,23.87
2023-01-30T04:34:54.724Z,24.43
2023-01-30T04:38:58.994Z,22.90
2023-01-30T04:43:05.654Z,22.63
2023-01-30T04:47:31.569Z,21.60
2023-01-30T04:51:34.938Z,24.23
2023-01-30T04:55:58.518Z,23.43
2023-01-30T05:00:02.927Z,20.93
2023-01-30T05:04:08.978Z,21.67
2023-01-30T05:08:17.502Z,19.20
2023-01-30T05:18:40.008Z,19.20
2023-01-30T05:22:44.805Z,19.47
2023-01-30T05:27:03.617Z,18.93
2023-01-30T05:31:08.626Z,20.70
2023-01-30T05:35:11.959Z,21.63
2023-01-30T05:39:17.091Z,21.87
2023-01-30T05:43:20.492Z,24.13
2023-01-30T05:47:23.824Z,21.57
2023-01-30T05:51:28.735Z,21.70
2023-01-30T05:55:33.356Z,21.83
2023-01-30T06:00:39.281Z,20.70
2023-01-30T06:04:42.524Z,21.80
2023-01-30T06:08:48.405Z,19.10
2023-01-30T06:14:06.131Z,22.47
2023-01-30T06:18:10.907Z,21.83
2023-01-30T06:22:40.307Z,20.40
2023-01-30T06:26:43.638Z,20.83
2023-01-30T06:30:47.057Z,21.77
2023-01-30T06:35:22.110Z,19.33
2023-01-30T06:39:26.809Z,19.93
2023-01-30T06:43:30.097Z,19.13
2023-01-30T06:48:27.630Z,18.83
2023-01-30T06:52:31.062Z,19.10
2023-01-30T06:56:37.057Z,21.17
2023-01-30T07:00:42.487Z,21.77
2023-01-30T07:05:36.923Z,21.50
2023-01-30T07:10:13.301Z,16.57
2023-01-30T07:15:28.457Z,25.87
2023-01-30T07:19:33.195Z,19.03
2023-01-30T07:24:34.439Z,20.10
2023-01-30T07:28:37.820Z,23.33
2023-01-30T07:32:44.399Z,23.30
2023-01-30T07:36:49.600Z,21.97
2023-01-30T07:41:20.009Z,21.13
2023-01-30T07:45:23.323Z,24.93
2023-01-30T07:49:26.657Z,20.03
2023-01-30T07:53:52.118Z,21.03
2023-01-30T07:57:55.957Z,19.40
2023-01-30T08:02:30.071Z,21.57
2023-01-30T08:11:02.617Z,15.17
2023-01-30T08:15:07.160Z,15.27
2023-01-30T08:19:12.733Z,17.23
2023-01-30T08:23:16.034Z,19.43
2023-01-30T08:27:30.238Z,19.20
2023-01-30T08:31:40.647Z,19.10
2023-01-30T08:35:57.411Z,18.00
2023-01-30T08:40:00.796Z,19.17
2023-01-30T08:44:06.165Z,17.23
2023-01-30T08:48:09.548Z,21.37
2023-01-30T08:52:12.831Z,22.73
2023-01-30T08:56:48.937Z,20.93
2023-01-30T09:00:54.226Z,19.53
2023-01-30T09:04:58.875Z,20.87
2023-01-30T09:09:02.528Z,21.40
2023-01-30T09:13:10.832Z,16.93
2023-01-30T09:17:42.519Z,17.93
2023-01-30T09:21:47.463Z,14.07
2023-01-30T09:25:55.085Z,18.70
2023-01-30T09:29:58.971Z,19.10
2023-01-30T09:34:09.853Z,21.23
2023-01-30T09:38:13.630Z,17.67
2023-01-30T09:43:06.274Z,21.50
2023-01-30T09:47:41.946Z,17.13
2023-01-30T09:51:57.128Z,22.00
2023-01-30T09:56:03.500Z,22.27
2023-01-30T10:00:57.644Z,19.30
2023-01-30T10:05:03.946Z,17.80
2023-01-30T10:09:36.609Z,19.13
2023-01-30T10:14:02.355Z,17.70
2023-01-30T10:18:51.493Z,18.50
2023-01-30T10:23:19.691Z,15.40
2023-01-30T10:27:27.042Z,17.00
2023-01-30T10:31:46.962Z,15.73
2023-01-30T10:36:04.567Z,21.97
2023-01-30T10:40:19.591Z,18.57
2023-01-30T10:44:25.511Z,17.03
2023-01-30T10:48:56.696Z,15.33
2023-01-30T10:53:13.995Z,16.70
2023-01-30T10:57:27.316Z,17.10
2023-01-30T11:01:46.261Z,15.40
2023-01-30T11:05:51.701Z,17.67
2023-01-30T11:10:01.933Z,14.43
2023-01-30T11:14:51.651Z,13.70
2023-01-30T11:23:34.057Z,11.53
2023-01-30T11:27:38.093Z,13.27
2023-01-30T11:31:51.784Z,11.10
2023-01-30T11:35:59.803Z,11.47
2023-01-30T11:40:26.685Z,10.67
2023-01-30T11:44:32.094Z,12.47
2023-01-30T11:49:02.320Z,14.17
2023-01-30T11:53:49.528Z,11.83
2023-01-30T11:57:58.708Z,13.67
2023-01-30T12:02:14.327Z,15.53
2023-01-30T12:06:27.398Z,12.90
2023-01-30T12:10:33.182Z,12.00
2023-01-30T12:14:41.445Z,13.60
2023-01-30T12:19:13.404Z,11.47
2023-01-30T12:23:31.800Z,13.93
2023-01-30T12:32:11.898Z,11.93
2023-01-30T12:36:27.234Z,11.70
2023-01-30T12:40:50.198Z,11.87
2023-01-30T12:45:07.555Z,10.20
2023-01-30T12:49:32.670Z,13.77
2023-01-30T12:54:05.007Z,10.77
2023-01-30T12:58:22.598Z,9.23
2023-01-30T13:02:47.481Z,9.77
2023-01-30T13:07:08.128Z,8.40
2023-01-30T13:11:40.989Z,11.90
2023-01-30T13:15:59.652Z,9.43
2023-01-30T13:20:19.514Z,7.17
2023-01-30T13:24:29.297Z,6.23
2023-01-30T13:28:37.415Z,8.23
2023-01-30T13:32:51.272Z,9.30
2023-01-30T13:37:00.958Z,6.90
2023-01-30T13:41:05.302Z,5.97
2023-01-30T13:45:17.230Z,7.70
2023-01-30T13:49:25.060Z,6.83
2023-01-30T13:53:57.041Z,6.80
2023-01-30T13:58:17.246Z,5.83
2023-01-30T14:02:25.130Z,5.03
2023-01-30T14:06:45.741Z,7.87
2023-01-30T14:10:56.334Z,6.40
2023-01-30T14:15:26.784Z,5.60
2023-01-30T14:19:36.808Z,6.83
2023-01-30T14:23:42.092Z,4.40
2023-01-30T14:28:30.366Z,5.47
2023-01-30T14:38:20.265Z,4.10
2023-01-30T14:42:25.658Z,4.77
2023-01-30T14:46:59.077Z,4.53
2023-01-30T14:51:33.361Z,3.17
2023-01-30T14:55:38.757Z,3.87
2023-01-30T15:00:12.119Z,3.23
2023-01-30T15:04:17.633Z,4.37
2023-01-30T15:08:49.805Z,5.13
2023-01-30T15:13:06.043Z,3.17
2023-01-30T15:17:24.970Z,4.80
2023-01-30T15:21:45.372Z,4.40
2023-01-30T15:26:14.242Z,2.93
2023-01-30T15:31:07.469Z,2.53
2023-01-30T15:35:49.387Z,2.37
2023-01-30T15:39:52.724Z,1.93
2023-01-30T15:44:19.958Z,1.07
2023-01-30T15:48:50.736Z,1.77
2023-01-30T15:52:56.631Z,1.73
2023-01-30T15:57:01.626Z,1.53
2023-01-30T16:01:09.699Z,26.17
2023-01-30T16:05:19.849Z,1.60
2023-01-30T16:09:27.743Z,1.40
2023-01-30T16:13:33.395Z,16.10
2023-01-30T16:17:37.037Z,2.03
2023-01-30T16:21:42.121Z,1.97
2023-01-30T16:25:48.644Z,1.40
2023-01-30T16:29:54.708Z,0.87
2023-01-30T16:33:58.786Z,2.53
2023-01-30T16:39:07.121Z,0.90
2023-01-30T16:43:44.480Z,1.23
2023-01-30T16:47:48.982Z,2.13
2023-01-30T16:52:02.180Z,1.40
2023-01-30T16:56:09.999Z,1.63
2023-01-30T17:00:42.827Z,1.27
2023-01-30T17:04:46.106Z,1.37
2023-01-30T17:08:58.845Z,1.27
2023-01-30T17:13:37.877Z,1.40
2023-01-30T17:17:43.452Z,1.40
2023-01-30T17:21:53.116Z,1.37
2023-01-30T17:26:01.931Z,1.43
2023-01-30T17:30:33.809Z,3.07
2023-01-30T17:34:41.185Z,2.40
2023-01-30T17:38:50.425Z,1.03
2023-01-30T17:42:55.033Z,2.00
2023-01-30T17:47:03.185Z,2.97
2023-01-30T17:51:08.714Z,1.00
2023-01-30T17:55:14.699Z,1.33
2023-01-30T17:59:31.701Z,1.10
2023-01-30T18:03:34.959Z,1.97
2023-01-30T18:07:40.416Z,0.90
2023-01-30T18:11:45.381Z,1.53
2023-01-30T18:15:48.723Z,2.20
2023-01-30T18:19:54.388Z,1.23
2023-01-30T18:24:26.193Z,1.73
2023-01-30T18:28:30.800Z,1.00
2023-01-30T18:32:53.430Z,1.30
2023-01-30T18:36:57.268Z,1.30
2023-01-30T18:41:00.829Z,1.20
2023-01-30T18:45:06.211Z,1.37
2023-01-30T18:49:28.099Z,0.63
2023-01-30T18:53:31.441Z,1.50
2023-01-30T18:57:45.825Z,0.93
2023-01-30T19:01:50.663Z,1.07
2023-01-30T19:05:54.066Z,0.80
2023-01-30T19:09:57.601Z,3.03
2023-01-30T19:14:01.593Z,0.93
2023-01-30T19:18:08.598Z,1.40
2023-01-30T19:22:11.907Z,2.07
2023-01-30T19:27:18.502Z,0.93
2023-01-30T19:31:23.343Z,2.37
2023-01-30T19:35:53.303Z,3.33
2023-01-30T19:39:56.561Z,0.73
2023-01-30T19:44:05.948Z,0.80
2023-01-30T19:48:10.594Z,1.00
2023-01-30T19:53:21.801Z,0.40
2023-01-30T19:57:26.719Z,0.70
2023-01-30T20:01:42.949Z,0.80
2023-01-30T20:05:49.048Z,0.80
2023-01-30T20:09:53.832Z,1.57
2023-01-30T20:14:07.554Z,1.40
2023-01-30T20:18:12.205Z,1.13
2023-01-30T20:22:18.436Z,1.30
2023-01-30T20:26:24.965Z,1.13
2023-01-30T20:30:31.562Z,1.50
2023-01-30T20:34:38.434Z,2.00
2023-01-30T20:38:51.626Z,1.37
2023-01-30T20:43:02.595Z,0.57
2023-01-30T20:47:16.980Z,1.00
2023-01-30T20:51:29.039Z,1.57
2023-01-30T20:55:32.456Z,2.13
2023-01-30T20:59:40.977Z,0.63
2023-01-30T21:03:48.200Z,0.80
2023-01-30T21:07:56.962Z,2.20
2023-01-30T21:12:04.398Z,2.10
2023-01-30T21:16:14.197Z,1.77
2023-01-30T21:20:19.234Z,2.30
2023-01-30T21:24:26.496Z,1.03
2023-01-30T21:28:32.109Z,0.97
2023-01-30T21:32:36.674Z,2.30
2023-01-30T21:37:07.795Z,0.67
2023-01-30T21:41:36.838Z,0.77
2023-01-30T21:45:40.179Z,0.60
2023-01-30T21:49:45.658Z,1.47
2023-01-30T21:53:50.649Z,2.43
2023-01-30T21:57:53.917Z,1.63
2023-01-30T22:02:13.821Z,1.43
2023-01-30T22:06:16.999Z,1.07
2023-01-30T22:10:21.943Z,0.70
2023-01-30T22:14:31.062Z,1.33
2023-01-30T22:18:35.368Z,0.83
2023-01-30T22:23:03.512Z,1.63
2023-01-30T22:27:08.205Z,0.87
2023-01-30T22:31:16.058Z,0.80
2023-01-30T22:35:20.385Z,2.23
2023-01-30T22:39:23.879Z,2.70
2023-01-30T22:43:30.231Z,0.90
2023-01-30T22:47:33.604Z,2.37
2023-01-30T22:51:43.706Z,2.43
2023-01-30T22:55:47.181Z,0.90
2023-01-30T22:59:52.545Z,3.70
2023-01-30T23:03:57.919Z,1.60
2023-01-30T23:08:01.435Z,2.60
2023-01-30T23:13:15.359Z,0.90
2023-01-30T23:17:39.220Z,2.60
2023-01-30T23:22:10.575Z,1.00
2023-01-30T23:26:14.405Z,2.53
2023-01-30T23:31:30.002Z,3.10
2023-01-30T23:35:35.472Z,1.97
2023-01-30T23:39:38.960Z,0.97
2023-01-30T23:43:44.165Z,2.80
2023-01-30T23:47:52.970Z,0.80
2023-01-30T23:51:57.753Z,1.17
2023-01-30T23:56:02.924Z,1.10
